createdAt,value
2018-04-07T00:01:05.446Z,11.00
2018-04-07T00:03:32.899Z,10.90
2018-04-07T00:06:00.363Z,10.90
2018-04-07T00:08:27.805Z,10.90
2018-04-07T00:10:56.059Z,10.80
2018-04-07T00:13:23.518Z,10.80
2018-04-07T00:15:50.965Z,10.70
2018-04-07T00:18:18.430Z,10.70
2018-04-07T00:20:45.895Z,10.70
2018-04-07T00:23:13.367Z,10.60
2018-04-07T00:25:41.578Z,10.50
2018-04-07T00:28:09.043Z,10.50
2018-04-07T00:30:36.497Z,10.50
2018-04-07T00:33:03.946Z,10.50
2018-04-07T00:35:32.182Z,10.50
2018-04-07T00:37:59.630Z,10.40
2018-04-07T00:40:27.089Z,10.50
2018-04-07T00:42:54.537Z,10.50
2018-04-07T00:45:22.846Z,10.50
2018-04-07T00:47:50.316Z,10.50
2018-04-07T00:50:18.546Z,10.50
2018-04-07T00:52:56.014Z,10.40
2018-04-07T00:55:23.462Z,10.50
2018-04-07T00:57:51.694Z,10.40
2018-04-07T01:00:19.146Z,10.40
2018-04-07T01:02:46.649Z,10.40
2018-04-07T01:05:14.131Z,10.30
2018-04-07T01:07:41.648Z,10.30
2018-04-07T01:10:09.861Z,10.20
2018-04-07T01:12:37.310Z,10.20
2018-04-07T01:15:04.781Z,10.20
2018-04-07T01:17:32.221Z,10.10
2018-04-07T01:20:00.445Z,10.10
2018-04-07T01:22:27.898Z,10.10
2018-04-07T01:24:55.361Z,10.10
2018-04-07T01:27:22.882Z,10.10
2018-04-07T01:29:50.345Z,10.10
2018-04-07T01:32:17.802Z,10.00
2018-04-07T01:34:45.296Z,10.10
2018-04-07T01:37:12.858Z,10.10
2018-04-07T01:39:40.311Z,10.10
2018-04-07T01:42:07.864Z,10.10
2018-04-07T01:44:35.306Z,10.10
2018-04-07T01:47:03.530Z,10.20
2018-04-07T01:49:30.994Z,10.10
2018-04-07T01:51:58.459Z,10.20
2018-04-07T01:54:25.929Z,10.20
2018-04-07T01:56:53.370Z,10.20
2018-04-07T01:59:20.836Z,10.20
2018-04-07T02:01:48.286Z,10.10
2018-04-07T02:04:15.751Z,10.20
2018-04-07T02:06:43.246Z,10.20
2018-04-07T02:09:10.706Z,10.10
2018-04-07T02:11:38.153Z,10.20
2018-04-07T02:14:05.933Z,10.30
2018-04-07T02:16:33.386Z,10.20
2018-04-07T02:19:00.935Z,10.30
2018-04-07T02:21:29.158Z,10.30
2018-04-07T02:23:56.607Z,10.30
2018-04-07T02:26:24.102Z,10.20
2018-04-07T02:28:51.549Z,10.20
2018-04-07T02:31:19.042Z,10.20
2018-04-07T02:33:46.486Z,10.20
2018-04-07T02:36:13.979Z,10.20
2018-04-07T02:38:41.422Z,10.20
2018-04-07T02:41:08.870Z,10.20
2018-04-07T02:43:36.424Z,10.10
2018-04-07T02:46:03.865Z,10.20
2018-04-07T02:48:31.328Z,10.20
2018-04-07T02:50:58.778Z,10.20
2018-04-07T02:53:26.243Z,10.20
2018-04-07T02:55:53.737Z,10.20
2018-04-07T02:58:21.306Z,10.10
2018-04-07T03:00:48.757Z,10.10
2018-04-07T03:03:16.211Z,10.10
2018-04-07T03:05:44.428Z,10.00
2018-04-07T03:08:11.907Z,10.00
2018-04-07T03:10:39.386Z,10.00
2018-04-07T03:13:06.849Z,10.00
2018-04-07T03:15:34.333Z,10.00
2018-04-07T03:18:01.775Z,9.90
2018-04-07T03:20:29.242Z,9.90
2018-04-07T03:22:56.682Z,9.90
2018-04-07T03:25:24.129Z,9.90
2018-04-07T03:27:52.353Z,9.80
2018-04-07T03:30:19.795Z,9.80
2018-04-07T03:32:48.022Z,9.70
2018-04-07T03:35:15.470Z,9.70
2018-04-07T03:37:43.047Z,9.70
2018-04-07T03:40:10.474Z,9.70
2018-04-07T03:42:38.197Z,9.60
2018-04-07T03:45:05.691Z,9.60
2018-04-07T03:47:33.170Z,9.60
2018-04-07T03:50:00.625Z,9.60
2018-04-07T03:52:28.102Z,9.60
2018-04-07T03:54:55.558Z,9.60
2018-04-07T03:57:23.002Z,9.60
2018-04-07T03:59:50.478Z,9.60
2018-04-07T04:02:17.916Z,9.50
2018-04-07T04:04:45.414Z,9.50
2018-04-07T04:07:13.626Z,9.50
2018-04-07T04:09:41.073Z,9.50
2018-04-07T04:12:08.537Z,9.50
2018-04-07T04:14:35.982Z,9.50
2018-04-07T04:17:04.207Z,9.40
2018-04-07T04:19:31.653Z,9.40
2018-04-07T04:21:59.889Z,9.40
2018-04-07T04:24:27.425Z,9.40
2018-04-07T04:26:54.998Z,9.40
2018-04-07T04:29:22.467Z,9.40
2018-04-07T04:31:50.699Z,9.30
2018-04-07T04:34:18.162Z,9.30
2018-04-07T04:36:45.601Z,9.30
2018-04-07T04:39:13.070Z,9.30
2018-04-07T04:41:40.518Z,9.30
2018-04-07T04:44:07.965Z,9.20
2018-04-07T04:46:35.422Z,9.20
2018-04-07T04:49:02.877Z,9.20
2018-04-07T04:51:30.357Z,9.20
2018-04-07T04:53:57.824Z,9.20
2018-04-07T04:56:25.282Z,9.20
2018-04-07T04:58:52.738Z,9.20
2018-04-07T05:01:20.236Z,9.10
2018-04-07T05:03:47.692Z,9.10
2018-04-07T05:06:15.134Z,9.10
2018-04-07T05:08:42.604Z,9.10
2018-04-07T05:11:10.058Z,9.10
2018-04-07T05:13:38.289Z,9.10
2018-04-07T05:16:05.734Z,9.10
2018-04-07T05:18:33.183Z,9.10
2018-04-07T05:21:01.418Z,9.10
2018-04-07T05:23:28.857Z,9.10
2018-04-07T05:25:56.318Z,9.20
2018-04-07T05:28:23.846Z,9.20
2018-04-07T05:30:51.418Z,9.20
2018-04-07T05:33:18.862Z,9.20
2018-04-07T05:35:46.378Z,9.30
2018-04-07T05:38:14.697Z,9.30
2018-04-07T05:40:42.164Z,9.30
2018-04-07T05:43:10.378Z,9.40
2018-04-07T05:45:37.822Z,9.30
2018-04-07T05:48:05.282Z,9.40
2018-04-07T05:50:32.726Z,9.50
2018-04-07T05:53:00.177Z,9.50
2018-04-07T05:55:27.648Z,9.50
2018-04-07T05:57:55.109Z,9.60
2018-04-07T06:00:22.559Z,9.70
2018-04-07T06:02:50.045Z,9.70
2018-04-07T06:05:17.622Z,9.80
2018-04-07T06:46:57.401Z,11.50
2018-04-07T06:49:24.918Z,11.70
2018-04-07T06:51:52.378Z,11.90
2018-04-07T06:54:19.829Z,12.10
2018-04-07T06:56:47.278Z,12.40
2018-04-07T06:59:14.751Z,12.60
2018-04-07T07:01:42.219Z,12.60
2018-04-07T07:04:09.673Z,12.70
2018-04-07T07:06:37.218Z,12.90
2018-04-07T07:09:05.631Z,13.20
2018-04-07T07:11:33.869Z,13.70
2018-04-07T07:14:01.317Z,13.60
2018-04-07T07:16:28.782Z,14.00
2018-04-07T07:18:56.230Z,14.00
2018-04-07T07:21:24.451Z,14.10
2018-04-07T07:23:52.004Z,14.20
2018-04-07T07:26:20.235Z,14.50
2018-04-07T07:28:47.694Z,14.50
2018-04-07T07:31:15.142Z,14.60
2018-04-07T07:33:42.624Z,14.70
2018-04-07T07:36:10.079Z,14.50
2018-04-07T07:38:37.614Z,14.70
2018-04-07T07:41:05.969Z,15.50
2018-04-07T07:43:33.450Z,15.50
2018-04-07T07:46:00.894Z,15.80
2018-04-07T07:48:28.362Z,15.80
2018-04-07T07:50:55.831Z,15.90
2018-04-07T07:53:23.317Z,16.00
2018-04-07T07:55:50.782Z,16.20
2018-04-07T07:58:18.258Z,16.60
2018-04-07T08:00:45.854Z,16.80
2018-04-07T08:03:13.296Z,16.70
2018-04-07T08:05:40.778Z,16.70
2018-04-07T08:08:08.241Z,16.70
2018-04-07T08:10:35.714Z,16.70
2018-04-07T08:13:03.189Z,17.20
2018-04-07T08:15:30.647Z,17.30
2018-04-07T08:17:58.217Z,17.10
2018-04-07T08:20:25.682Z,17.10
2018-04-07T08:22:53.896Z,17.30
2018-04-07T08:25:22.029Z,17.50
2018-04-07T08:27:49.534Z,18.00
2018-04-07T08:30:17.006Z,18.20
2018-04-07T08:32:44.498Z,18.00
2018-04-07T08:35:12.359Z,18.50
2018-04-07T08:37:39.873Z,19.10
2018-04-07T08:40:08.095Z,19.60
2018-04-07T08:42:35.558Z,19.60
2018-04-07T08:45:03.055Z,20.00
2018-04-07T08:47:30.518Z,19.90
2018-04-07T08:49:57.998Z,20.00
2018-04-07T08:52:25.491Z,19.80
2018-04-07T08:54:53.067Z,19.90
2018-04-07T08:57:20.582Z,19.70
2018-04-07T08:59:47.982Z,20.40
2018-04-07T09:02:15.454Z,20.40
2018-04-07T09:04:42.926Z,20.40
2018-04-07T09:07:10.379Z,20.80
2018-04-07T09:09:37.848Z,20.90
2018-04-07T09:12:05.300Z,20.90
2018-04-07T09:14:32.751Z,21.10
2018-04-07T09:17:00.973Z,21.00
2018-04-07T09:19:28.459Z,21.00
2018-04-07T09:21:55.901Z,20.90
2018-04-07T09:24:23.394Z,21.20
2018-04-07T09:26:50.889Z,21.10
2018-04-07T09:29:18.338Z,21.40
2018-04-07T09:31:45.802Z,21.70
2018-04-07T09:34:13.281Z,22.00
2018-04-07T09:36:40.751Z,22.30
2018-04-07T09:39:08.281Z,22.40
2018-04-07T09:41:35.787Z,22.20
2018-04-07T09:44:03.252Z,21.80
2018-04-07T09:46:30.715Z,22.10
2018-04-07T09:48:58.178Z,22.70
2018-04-07T09:51:25.638Z,23.10
2018-04-07T09:53:53.086Z,23.10
2018-04-07T09:56:21.310Z,23.00
2018-04-07T09:58:48.772Z,23.00
2018-04-07T10:01:16.249Z,23.20
2018-04-07T10:03:43.711Z,23.10
2018-04-07T10:06:11.211Z,23.40
2018-04-07T10:08:38.669Z,23.40
2018-04-07T10:11:06.126Z,23.40
2018-04-07T10:13:33.726Z,23.50
2018-04-07T10:16:01.188Z,23.90
2018-04-07T10:18:29.067Z,24.30
2018-04-07T10:20:56.596Z,24.60
2018-04-07T10:23:24.825Z,24.70
2018-04-07T10:25:52.281Z,24.70
2018-04-07T10:54:14.912Z,25.70
2018-04-07T10:59:45.498Z,25.70
2018-04-07T11:10:04.494Z,27.40
2018-04-07T11:17:41.338Z,26.40
2018-04-07T11:20:08.790Z,26.30
2018-04-07T11:22:36.312Z,26.90
2018-04-07T11:26:40.222Z,26.70
2018-04-07T11:29:07.686Z,27.00
2018-04-07T11:31:35.158Z,27.70
2018-04-07T11:34:02.658Z,28.10
2018-04-07T11:36:30.267Z,28.00
2018-04-07T11:38:58.476Z,28.30
2018-04-07T11:41:25.961Z,28.20
2018-04-07T11:43:53.418Z,28.10
2018-04-07T11:46:20.971Z,27.10
2018-04-07T11:48:48.478Z,26.90
2018-04-07T11:51:16.049Z,27.10
2018-04-07T11:53:43.494Z,27.00
2018-04-07T11:56:10.942Z,26.30
2018-04-07T11:58:38.521Z,27.10
2018-04-07T12:01:05.988Z,27.40
2018-04-07T12:03:34.216Z,27.40
2018-04-07T12:06:01.666Z,27.30
2018-04-07T12:08:29.126Z,27.50
2018-04-07T12:10:57.338Z,28.70
2018-04-07T12:13:24.821Z,28.80
2018-04-07T12:15:52.286Z,29.20
2018-04-07T12:18:19.737Z,29.40
2018-04-07T12:20:47.198Z,29.00
2018-04-07T12:23:14.651Z,28.40
2018-04-07T12:25:42.131Z,28.20
2018-04-07T12:28:09.634Z,28.70
2018-04-07T12:30:37.090Z,29.00
2018-04-07T12:33:05.482Z,28.90
2018-04-07T12:35:32.931Z,29.30
2018-04-07T12:38:00.391Z,28.50
2018-04-07T12:40:27.910Z,27.70
2018-04-07T12:42:55.394Z,27.90
2018-04-07T12:45:22.842Z,28.10
2018-04-07T12:47:50.302Z,28.30
2018-04-07T12:50:17.758Z,28.90
2018-04-07T12:52:45.206Z,28.90
2018-04-07T12:55:12.678Z,28.80
2018-04-07T12:57:40.202Z,28.70
2018-04-07T13:00:07.971Z,29.30
2018-04-07T13:02:35.434Z,29.80
2018-04-07T13:05:02.890Z,30.10
2018-04-07T13:07:30.444Z,30.20
2018-04-07T13:09:58.650Z,30.40
2018-04-07T13:12:26.126Z,30.40
2018-04-07T13:14:53.579Z,30.70
2018-04-07T13:17:21.042Z,30.90
2018-04-07T13:19:48.495Z,30.60
2018-04-07T13:22:16.718Z,29.10
2018-04-07T13:24:44.182Z,29.00
2018-04-07T13:27:11.633Z,28.90
2018-04-07T13:29:39.089Z,29.50
2018-04-07T13:32:07.314Z,29.80
2018-04-07T13:34:34.799Z,29.80
2018-04-07T13:37:02.250Z,30.10
2018-04-07T13:39:29.698Z,29.50
2018-04-07T13:41:57.171Z,29.00
2018-04-07T13:44:24.621Z,29.20
2018-04-07T13:46:52.933Z,29.50
2018-04-07T13:49:20.374Z,29.50
2018-04-07T13:51:48.936Z,30.00
2018-04-07T13:54:16.382Z,30.00
2018-04-07T13:56:43.874Z,30.40
2018-04-07T13:59:11.338Z,30.50
2018-04-07T14:01:38.792Z,30.00
2018-04-07T14:04:06.297Z,30.00
2018-04-07T14:06:33.854Z,30.30
2018-04-07T14:09:01.351Z,29.90
2018-04-07T14:11:28.798Z,29.40
2018-04-07T14:13:56.245Z,29.60
2018-04-07T14:16:23.718Z,29.90
2018-04-07T14:18:51.163Z,30.00
2018-04-07T14:21:18.638Z,30.10
2018-04-07T14:23:46.110Z,30.20
2018-04-07T14:26:13.570Z,30.00
2018-04-07T14:28:41.029Z,30.20
2018-04-07T14:31:09.374Z,29.90
2018-04-07T14:33:36.946Z,29.80
2018-04-07T14:36:04.418Z,29.50
2018-04-07T14:38:31.949Z,29.00
2018-04-07T14:40:59.437Z,28.90
2018-04-07T14:43:26.991Z,29.20
2018-04-07T14:45:54.460Z,28.80
2018-04-07T14:48:21.902Z,28.30
2018-04-07T14:50:50.122Z,27.50
2018-04-07T14:53:17.583Z,27.50
2018-04-07T14:55:45.109Z,27.10
2018-04-07T14:58:12.556Z,26.40
2018-04-07T15:00:40.162Z,26.00
2018-04-07T15:03:07.616Z,25.80
2018-04-07T15:05:35.066Z,25.60
2018-04-07T15:08:02.534Z,25.50
2018-04-07T15:10:29.979Z,25.50
2018-04-07T15:12:57.426Z,25.40
2018-04-07T15:15:25.674Z,25.20
2018-04-07T15:17:53.142Z,25.10
2018-04-07T15:20:20.617Z,25.10
2018-04-07T15:22:48.082Z,25.00
2018-04-07T15:25:15.538Z,24.90
2018-04-07T15:27:42.989Z,24.90
2018-04-07T15:30:10.494Z,24.90
2018-04-07T15:32:37.975Z,24.80
2018-04-07T15:35:05.425Z,24.80
2018-04-07T15:37:32.910Z,24.80
2018-04-07T15:40:00.361Z,24.80
2018-04-07T15:42:27.837Z,24.80
2018-04-07T15:44:55.343Z,24.70
2018-04-07T15:47:22.758Z,24.70
2018-04-07T15:49:50.211Z,24.60
2018-04-07T15:52:17.672Z,24.60
2018-04-07T15:54:45.886Z,24.60
2018-04-07T15:57:13.362Z,24.60
2018-04-07T17:41:16.246Z,22.00
2018-04-07T17:43:43.711Z,21.80
2018-04-07T17:46:11.171Z,21.80
2018-04-07T17:48:38.641Z,21.80
2018-04-07T17:51:06.090Z,21.60
2018-04-07T17:53:34.334Z,21.50
2018-04-07T17:56:01.810Z,21.50
2018-04-07T17:58:29.378Z,21.50
2018-04-07T18:00:56.834Z,21.40
2018-04-07T18:03:24.318Z,21.30
2018-04-07T18:05:51.789Z,21.30
2018-04-07T18:08:19.259Z,21.20
2018-04-07T18:10:46.710Z,21.20
2018-04-07T18:13:14.166Z,21.20
2018-04-07T18:15:41.634Z,21.10
2018-04-07T18:18:09.098Z,21.00
2018-04-07T18:20:36.562Z,21.00
2018-04-07T18:23:04.018Z,21.00
2018-04-07T18:25:32.325Z,20.80
2018-04-07T18:28:00.562Z,20.80
2018-04-07T18:30:28.018Z,20.80
2018-04-07T18:32:55.497Z,20.70
2018-04-07T18:35:22.954Z,20.60
2018-04-07T18:37:50.412Z,20.50
2018-04-07T18:40:17.906Z,20.50
2018-04-07T18:42:45.376Z,20.40
2018-04-07T18:45:13.150Z,20.30
2018-04-07T18:47:40.619Z,20.30
2018-04-07T18:50:08.061Z,20.10
2018-04-07T18:52:35.527Z,20.10
2018-04-07T18:55:02.975Z,20.00
2018-04-07T18:57:31.209Z,19.90
2018-04-07T18:59:58.666Z,19.90
2018-04-07T19:02:26.166Z,19.80
2018-04-07T19:04:53.621Z,19.80
2018-04-07T19:07:21.105Z,19.70
2018-04-07T19:09:48.614Z,19.70
2018-04-07T19:12:16.037Z,19.60
2018-04-07T19:14:43.515Z,19.50
2018-04-07T19:17:10.970Z,19.50
2018-04-07T19:19:38.455Z,19.40
2018-04-07T19:22:06.014Z,19.40
2018-04-07T19:24:33.466Z,19.40
2018-04-07T19:27:00.963Z,19.30
2018-04-07T19:29:28.431Z,19.20
2018-04-07T19:31:55.897Z,19.10
2018-04-07T19:34:23.354Z,19.10
2018-04-07T19:36:50.816Z,19.00
2018-04-07T19:39:18.313Z,18.80
2018-04-07T19:41:45.770Z,18.60
2018-04-07T19:44:13.231Z,18.50
2018-04-07T19:46:40.682Z,18.40
2018-04-07T19:49:08.166Z,18.30
2018-04-07T19:51:35.613Z,18.20
2018-04-07T19:54:03.066Z,18.20
2018-04-07T19:56:31.342Z,17.90
2018-04-07T19:58:58.798Z,17.90
2018-04-07T20:01:27.173Z,17.70
2018-04-07T20:03:54.625Z,17.70
2018-04-07T20:06:22.113Z,17.50
2018-04-07T20:08:49.573Z,17.40
2018-04-07T20:11:17.055Z,17.30
2018-04-07T20:13:44.502Z,17.10
2018-04-07T20:16:12.214Z,17.00
2018-04-07T20:18:39.737Z,16.90
2018-04-07T20:21:07.186Z,16.90
2018-04-07T20:23:35.409Z,16.70
2018-04-07T20:26:02.854Z,16.70
2018-04-07T20:28:30.316Z,16.60
2018-04-07T20:30:58.619Z,16.40
2018-04-07T20:33:26.125Z,16.40
2018-04-07T20:35:53.577Z,16.30
2018-04-07T20:38:21.030Z,16.20
2018-04-07T20:40:55.013Z,16.10
2018-04-07T20:43:22.557Z,16.00
2018-04-07T20:45:50.030Z,15.90
2018-04-07T20:48:17.502Z,15.80
2018-04-07T20:50:44.969Z,15.60
2018-04-07T20:53:12.414Z,15.60
2018-04-07T20:55:39.906Z,15.50
2018-04-07T20:58:07.358Z,15.50
2018-04-07T21:00:34.847Z,15.40
2018-04-07T21:03:02.382Z,15.40
2018-04-07T21:05:29.838Z,15.30
2018-04-07T21:07:58.082Z,15.20
2018-04-07T21:10:25.621Z,15.20
2018-04-07T21:12:53.058Z,15.10
2018-04-07T21:15:21.297Z,15.00
2018-04-07T21:17:48.750Z,15.00
2018-04-07T21:20:16.254Z,15.00
2018-04-07T21:22:43.709Z,14.90
2018-04-07T21:25:11.187Z,14.90
2018-04-07T21:27:38.646Z,14.80
2018-04-07T21:30:06.117Z,14.80
2018-04-07T21:32:33.598Z,14.70
2018-04-07T21:35:01.064Z,14.70
2018-04-07T21:37:28.527Z,14.60
2018-04-07T21:39:56.005Z,14.60
2018-04-07T21:42:23.459Z,14.60
2018-04-07T21:44:50.917Z,14.50
2018-04-07T21:47:18.378Z,14.40
2018-04-07T21:49:45.948Z,14.40
2018-04-07T21:52:13.403Z,14.40
2018-04-07T21:54:41.675Z,14.30
2018-04-07T21:57:09.125Z,14.30
2018-04-07T21:59:36.577Z,14.30
2018-04-07T22:02:04.058Z,14.20
2018-04-07T22:04:31.514Z,14.30
2018-04-07T22:06:58.982Z,14.20
2018-04-07T22:09:26.431Z,14.20
2018-04-07T22:11:53.898Z,14.20
2018-04-07T22:14:21.406Z,14.10
2018-04-07T22:16:48.861Z,14.10
2018-04-07T22:19:16.346Z,14.10
2018-04-07T22:21:43.806Z,14.10
2018-04-07T22:24:11.287Z,14.00
2018-04-07T22:26:38.745Z,14.00
2018-04-07T22:29:06.222Z,14.00
2018-04-07T22:31:33.690Z,13.90
2018-04-07T22:34:01.142Z,13.80
2018-04-07T22:36:28.622Z,13.80
2018-04-07T22:38:56.070Z,13.70
2018-04-07T22:41:23.526Z,13.70
2018-04-07T22:43:51.855Z,13.60
2018-04-07T22:46:19.297Z,13.70
2018-04-07T22:48:46.782Z,13.70
2018-04-07T22:51:14.315Z,13.70
2018-04-07T22:53:41.714Z,13.70
2018-04-07T22:56:09.174Z,13.80
2018-04-07T22:58:36.642Z,13.80
2018-04-07T23:01:04.107Z,13.80
2018-04-07T23:03:31.624Z,13.80
2018-04-07T23:05:59.066Z,13.80
2018-04-07T23:08:26.553Z,13.80
2018-04-07T23:10:53.997Z,13.80
2018-04-07T23:13:21.498Z,13.80
2018-04-07T23:15:48.953Z,13.80
2018-04-07T23:18:16.402Z,13.80
2018-04-07T23:20:43.870Z,13.80
2018-04-07T23:23:11.374Z,13.80
2018-04-07T23:25:38.953Z,13.80
2018-04-07T23:28:06.418Z,13.80
2018-04-07T23:30:33.885Z,13.80
2018-04-07T23:33:01.346Z,13.90
2018-04-07T23:35:28.794Z,13.90
2018-04-07T23:37:56.285Z,13.90
2018-04-07T23:40:23.768Z,14.00
2018-04-07T23:42:51.228Z,14.10
2018-04-07T23:45:18.706Z,14.10
2018-04-07T23:47:46.177Z,14.20
2018-04-07T23:50:13.950Z,14.20
2018-04-07T23:52:41.402Z,14.30
2018-04-07T23:55:08.895Z,14.20
2018-04-07T23:57:36.356Z,14.30
